Portada
METAR-TAF:

METAR-TAF

Aeroports :

Qaisumah, Aràbia Saudita

latitud: 28-19N, longitud: 046-07E, altitud: 358 m

Observació

L'informe es va fer fa 1 hora i 9 minuts, a les 16:00 UTC
Vent 6 kt del Nord
Temperatura 36°C
Humitat 29%
Pressió 1009 hPa
Visibilitat 10 km o més
sense núvols per sota de 1500 mi sense presència de cumulonimbus.

METAR: OEPA 191600Z 36006KT CAVOK 36/15 Q1009 NOSIG

Hora: 20:09 (17:09 UTC)

Pronòstic

L'informe es va fer fa 8 hores i 9 minuts, a les 09:00 UTC
Pronòstic vàlid del 19 a les 12 UTC al 20 a les 18 UTC
Vent 10 kt del Nord
Visibilitat 10 km o més
sense núvols per sota de 1500 mi sense presència de cumulonimbus.
Evolucionant progressivament
l' 20 a les 06 UTC al 20 a les 08 UTC
Vent 12 kt del Nord-Oest

TAF: OEPA 190900Z 1912/2018 35010KT CAVOK BECMG 2006/2008 32012KT

Observacions i pronòstics meteorològics de més de 4000 aeroports (METAR i TAF).

Les estacions disponibles són els punts grocs i vermells al mapa.

Posi el ratolí al punt desitjat per veure el nom de l'estació.

Feu clic per veure les observacions i els pronòstics meteorològics.

Per canviar el mapa: feu clic els botons verds amb una creu de color negre per apropar; al botó verd amb un guió per allunyar la imatge; o en les fletxes verdes per a mapes adjacents.


METAR-TAF: